sensor_id;sensor_type;location;lat;lon;timestamp;P1;durP1;ratioP1;P2;durP2;ratioP2
66585;SDS011;53444;45.822;16.092;2023-06-10T00:00:39;4.63;;;2.90;;
66585;SDS011;53444;45.822;16.092;2023-06-10T00:03:07;4.38;;;2.53;;
66585;SDS011;53444;45.822;16.092;2023-06-10T00:05:33;3.78;;;2.53;;
66585;SDS011;53444;45.822;16.092;2023-06-10T00:08:02;3.87;;;2.93;;
66585;SDS011;53444;45.822;16.092;2023-06-10T00:10:32;4.38;;;2.92;;
66585;SDS011;53444;45.822;16.092;2023-06-10T00:12:58;4.20;;;2.72;;
66585;SDS011;53444;45.822;16.092;2023-06-10T00:15:26;3.20;;;2.55;;
66585;SDS011;53444;45.822;16.092;2023-06-10T00:17:52;4.72;;;2.78;;
66585;SDS011;53444;45.822;16.092;2023-06-10T00:20:20;3.93;;;2.40;;
66585;SDS011;53444;45.822;16.092;2023-06-10T00:22:48;2.92;;;2.38;;
66585;SDS011;53444;45.822;16.092;2023-06-10T00:25:17;5.00;;;2.67;;
66585;SDS011;53444;45.822;16.092;2023-06-10T00:27:44;4.03;;;2.40;;
66585;SDS011;53444;45.822;16.092;2023-06-10T00:30:11;5.80;;;2.80;;
66585;SDS011;53444;45.822;16.092;2023-06-10T00:32:38;3.93;;;2.63;;
66585;SDS011;53444;45.822;16.092;2023-06-10T00:35:04;4.63;;;2.53;;
66585;SDS011;53444;45.822;16.092;2023-06-10T00:37:32;3.92;;;2.70;;
66585;SDS011;53444;45.822;16.092;2023-06-10T00:40:00;3.97;;;2.50;;
66585;SDS011;53444;45.822;16.092;2023-06-10T00:42:28;4.35;;;3.17;;
66585;SDS011;53444;45.822;16.092;2023-06-10T00:44:55;3.17;;;2.63;;
66585;SDS011;53444;45.822;16.092;2023-06-10T00:47:21;3.60;;;2.70;;
66585;SDS011;53444;45.822;16.092;2023-06-10T00:49:49;4.15;;;2.67;;
66585;SDS011;53444;45.822;16.092;2023-06-10T00:52:16;4.18;;;3.00;;
66585;SDS011;53444;45.822;16.092;2023-06-10T00:54:44;3.80;;;3.00;;
66585;SDS011;53444;45.822;16.092;2023-06-10T00:57:11;3.87;;;2.77;;
66585;SDS011;53444;45.822;16.092;2023-06-10T00:59:40;3.88;;;2.88;;
66585;SDS011;53444;45.822;16.092;2023-06-10T01:02:26;5.05;;;3.00;;
66585;SDS011;53444;45.822;16.092;2023-06-10T01:04:53;3.42;;;2.67;;
66585;SDS011;53444;45.822;16.092;2023-06-10T01:07:22;3.72;;;2.75;;
66585;SDS011;53444;45.822;16.092;2023-06-10T01:09:53;3.97;;;2.93;;
66585;SDS011;53444;45.822;16.092;2023-06-10T01:12:27;4.38;;;3.03;;
66585;SDS011;53444;45.822;16.092;2023-06-10T01:14:59;4.13;;;2.95;;
66585;SDS011;53444;45.822;16.092;2023-06-10T01:17:30;3.67;;;2.45;;
66585;SDS011;53444;45.822;16.092;2023-06-10T01:19:56;6.45;;;3.25;;
66585;SDS011;53444;45.822;16.092;2023-06-10T01:22:25;4.17;;;2.80;;
66585;SDS011;53444;45.822;16.092;2023-06-10T01:24:53;7.07;;;3.28;;
66585;SDS011;53444;45.822;16.092;2023-06-10T01:27:23;4.50;;;3.28;;
66585;SDS011;53444;45.822;16.092;2023-06-10T01:29:54;5.95;;;3.30;;
66585;SDS011;53444;45.822;16.092;2023-06-10T01:32:28;4.32;;;2.92;;
66585;SDS011;53444;45.822;16.092;2023-06-10T01:34:59;6.85;;;2.90;;
66585;SDS011;53444;45.822;16.092;2023-06-10T01:37:29;5.28;;;2.97;;
66585;SDS011;53444;45.822;16.092;2023-06-10T01:39:58;5.05;;;3.30;;
66585;SDS011;53444;45.822;16.092;2023-06-10T01:42:25;4.55;;;3.33;;
66585;SDS011;53444;45.822;16.092;2023-06-10T01:44:53;4.60;;;2.92;;
66585;SDS011;53444;45.822;16.092;2023-06-10T01:47:19;4.27;;;2.60;;
66585;SDS011;53444;45.822;16.092;2023-06-10T01:49:46;4.57;;;2.92;;
66585;SDS011;53444;45.822;16.092;2023-06-10T01:52:16;5.15;;;3.10;;
66585;SDS011;53444;45.822;16.092;2023-06-10T01:54:45;6.38;;;3.10;;
66585;SDS011;53444;45.822;16.092;2023-06-10T01:57:12;7.22;;;3.47;;
66585;SDS011;53444;45.822;16.092;2023-06-10T01:59:43;8.90;;;3.70;;
66585;SDS011;53444;45.822;16.092;2023-06-10T02:02:11;4.32;;;3.08;;
66585;SDS011;53444;45.822;16.092;2023-06-10T02:04:38;4.90;;;3.20;;
66585;SDS011;53444;45.822;16.092;2023-06-10T02:07:05;5.25;;;3.30;;
66585;SDS011;53444;45.822;16.092;2023-06-10T02:09:33;5.57;;;3.33;;
66585;SDS011;53444;45.822;16.092;2023-06-10T02:15:06;6.57;;;3.53;;
66585;SDS011;53444;45.822;16.092;2023-06-10T02:17:33;4.18;;;3.33;;
66585;SDS011;53444;45.822;16.092;2023-06-10T02:20:00;4.38;;;3.40;;
66585;SDS011;53444;45.822;16.092;2023-06-10T02:22:30;7.18;;;3.85;;
66585;SDS011;53444;45.822;16.092;2023-06-10T02:24:57;5.57;;;3.23;;
66585;SDS011;53444;45.822;16.092;2023-06-10T02:27:44;5.28;;;3.75;;
66585;SDS011;53444;45.822;16.092;2023-06-10T02:30:11;4.68;;;3.47;;
66585;SDS011;53444;45.822;16.092;2023-06-10T03:33:17;9.55;;;3.53;;
66585;SDS011;53444;45.822;16.092;2023-06-10T03:35:45;6.30;;;3.88;;
66585;SDS011;53444;45.822;16.092;2023-06-10T03:38:11;5.82;;;4.13;;
66585;SDS011;53444;45.822;16.092;2023-06-10T03:40:38;7.38;;;4.47;;
66585;SDS011;53444;45.822;16.092;2023-06-10T03:43:05;5.85;;;4.38;;
66585;SDS011;53444;45.822;16.092;2023-06-10T03:45:31;4.97;;;3.90;;
66585;SDS011;53444;45.822;16.092;2023-06-10T03:47:58;10.73;;;4.00;;
66585;SDS011;53444;45.822;16.092;2023-06-10T03:50:26;5.10;;;3.47;;
66585;SDS011;53444;45.822;16.092;2023-06-10T03:52:53;6.85;;;4.18;;
66585;SDS011;53444;45.822;16.092;2023-06-10T03:55:19;7.38;;;4.05;;
66585;SDS011;53444;45.822;16.092;2023-06-10T03:57:46;6.30;;;4.10;;
66585;SDS011;53444;45.822;16.092;2023-06-10T04:00:14;6.53;;;4.32;;
66585;SDS011;53444;45.822;16.092;2023-06-10T04:02:42;6.55;;;4.15;;
66585;SDS011;53444;45.822;16.092;2023-06-10T04:05:13;5.75;;;3.72;;
66585;SDS011;53444;45.822;16.092;2023-06-10T04:07:44;9.88;;;4.32;;
66585;SDS011;53444;45.822;16.092;2023-06-10T04:10:11;5.57;;;4.03;;
66585;SDS011;53444;45.822;16.092;2023-06-10T04:12:37;6.15;;;3.63;;
66585;SDS011;53444;45.822;16.092;2023-06-10T04:15:05;6.65;;;3.75;;
66585;SDS011;53444;45.822;16.092;2023-06-10T04:17:32;6.20;;;3.97;;
66585;SDS011;53444;45.822;16.092;2023-06-10T04:19:59;6.95;;;4.05;;
66585;SDS011;53444;45.822;16.092;2023-06-10T04:22:26;5.32;;;3.60;;
66585;SDS011;53444;45.822;16.092;2023-06-10T04:24:54;6.28;;;4.05;;
66585;SDS011;53444;45.822;16.092;2023-06-10T04:27:20;7.47;;;4.00;;
66585;SDS011;53444;45.822;16.092;2023-06-10T04:29:47;5.95;;;4.03;;
66585;SDS011;53444;45.822;16.092;2023-06-10T04:32:13;5.15;;;3.90;;
66585;SDS011;53444;45.822;16.092;2023-06-10T04:34:40;6.53;;;4.38;;
66585;SDS011;53444;45.822;16.092;2023-06-10T04:37:07;5.47;;;3.97;;
66585;SDS011;53444;45.822;16.092;2023-06-10T04:39:34;6.15;;;4.45;;
66585;SDS011;53444;45.822;16.092;2023-06-10T04:42:02;6.80;;;4.15;;
66585;SDS011;53444;45.822;16.092;2023-06-10T04:44:30;5.75;;;4.05;;
66585;SDS011;53444;45.822;16.092;2023-06-10T04:46:57;6.97;;;4.17;;
66585;SDS011;53444;45.822;16.092;2023-06-10T04:49:23;6.82;;;4.43;;
66585;SDS011;53444;45.822;16.092;2023-06-10T04:51:50;6.43;;;4.20;;
66585;SDS011;53444;45.822;16.092;2023-06-10T04:54:17;6.05;;;3.97;;
66585;SDS011;53444;45.822;16.092;2023-06-10T04:56:43;7.38;;;4.18;;
66585;SDS011;53444;45.822;16.092;2023-06-10T04:59:11;6.33;;;4.30;;
66585;SDS011;53444;45.822;16.092;2023-06-10T05:01:39;7.40;;;4.35;;
66585;SDS011;53444;45.822;16.092;2023-06-10T05:04:06;6.13;;;4.00;;
66585;SDS011;53444;45.822;16.092;2023-06-10T05:06:32;6.00;;;4.05;;
66585;SDS011;53444;45.822;16.092;2023-06-10T05:08:59;5.65;;;4.43;;
66585;SDS011;53444;45.822;16.092;2023-06-10T05:11:25;7.00;;;4.40;;
66585;SDS011;53444;45.822;16.092;2023-06-10T05:13:52;6.90;;;4.65;;
66585;SDS011;53444;45.822;16.092;2023-06-10T05:16:20;6.20;;;4.38;;
66585;SDS011;53444;45.822;16.092;2023-06-10T05:18:47;8.13;;;4.10;;
66585;SDS011;53444;45.822;16.092;2023-06-10T05:21:13;6.55;;;4.70;;
66585;SDS011;53444;45.822;16.092;2023-06-10T05:23:40;5.57;;;4.13;;
66585;SDS011;53444;45.822;16.092;2023-06-10T05:26:07;7.30;;;5.22;;
66585;SDS011;53444;45.822;16.092;2023-06-10T05:28:33;7.40;;;4.25;;
66585;SDS011;53444;45.822;16.092;2023-06-10T05:31:00;8.25;;;3.85;;
66585;SDS011;53444;45.822;16.092;2023-06-10T05:33:28;6.18;;;4.53;;
66585;SDS011;53444;45.822;16.092;2023-06-10T05:35:54;5.90;;;5.00;;
66585;SDS011;53444;45.822;16.092;2023-06-10T05:38:21;6.32;;;4.40;;
66585;SDS011;53444;45.822;16.092;2023-06-10T05:40:48;7.63;;;4.60;;
66585;SDS011;53444;45.822;16.092;2023-06-10T05:43:14;7.85;;;4.53;;
66585;SDS011;53444;45.822;16.092;2023-06-10T05:45:41;6.22;;;4.10;;
66585;SDS011;53444;45.822;16.092;2023-06-10T05:48:09;6.53;;;4.30;;
66585;SDS011;53444;45.822;16.092;2023-06-10T05:50:37;5.82;;;4.30;;
66585;SDS011;53444;45.822;16.092;2023-06-10T05:53:05;6.88;;;4.10;;
66585;SDS011;53444;45.822;16.092;2023-06-10T05:55:33;5.18;;;3.80;;
66585;SDS011;53444;45.822;16.092;2023-06-10T05:58:00;8.65;;;4.50;;
66585;SDS011;53444;45.822;16.092;2023-06-10T06:00:27;6.40;;;4.10;;
66585;SDS011;53444;45.822;16.092;2023-06-10T06:02:53;5.68;;;4.20;;
66585;SDS011;53444;45.822;16.092;2023-06-10T06:05:22;6.55;;;4.07;;
66585;SDS011;53444;45.822;16.092;2023-06-10T06:07:50;7.30;;;4.50;;
66585;SDS011;53444;45.822;16.092;2023-06-10T06:10:17;7.05;;;4.43;;
66585;SDS011;53444;45.822;16.092;2023-06-10T06:12:44;5.17;;;3.87;;
66585;SDS011;53444;45.822;16.092;2023-06-10T06:15:11;6.70;;;4.03;;
66585;SDS011;53444;45.822;16.092;2023-06-10T06:17:37;5.85;;;4.30;;
66585;SDS011;53444;45.822;16.092;2023-06-10T06:22:53;8.75;;;4.28;;
66585;SDS011;53444;45.822;16.092;2023-06-10T06:25:20;5.27;;;3.70;;
66585;SDS011;53444;45.822;16.092;2023-06-10T06:28:00;5.05;;;3.47;;
66585;SDS011;53444;45.822;16.092;2023-06-10T06:30:27;5.80;;;4.15;;
66585;SDS011;53444;45.822;16.092;2023-06-10T06:32:54;4.28;;;3.55;;
66585;SDS011;53444;45.822;16.092;2023-06-10T06:35:21;4.65;;;3.60;;
66585;SDS011;53444;45.822;16.092;2023-06-10T06:37:47;4.47;;;3.43;;
66585;SDS011;53444;45.822;16.092;2023-06-10T06:40:15;6.28;;;3.90;;
66585;SDS011;53444;45.822;16.092;2023-06-10T06:42:42;4.70;;;3.53;;
66585;SDS011;53444;45.822;16.092;2023-06-10T06:45:09;5.53;;;3.53;;
66585;SDS011;53444;45.822;16.092;2023-06-10T06:48:00;6.00;;;3.70;;
66585;SDS011;53444;45.822;16.092;2023-06-10T06:50:36;4.80;;;4.10;;
66585;SDS011;53444;45.822;16.092;2023-06-10T06:53:03;5.68;;;3.92;;
66585;SDS011;53444;45.822;16.092;2023-06-10T06:55:31;5.93;;;3.67;;
66585;SDS011;53444;45.822;16.092;2023-06-10T06:57:58;5.07;;;2.97;;
66585;SDS011;53444;45.822;16.092;2023-06-10T07:00:52;6.47;;;3.58;;
66585;SDS011;53444;45.822;16.092;2023-06-10T07:03:19;6.17;;;3.40;;
66585;SDS011;53444;45.822;16.092;2023-06-10T07:05:48;4.38;;;3.58;;
66585;SDS011;53444;45.822;16.092;2023-06-10T07:08:14;4.97;;;3.55;;
66585;SDS011;53444;45.822;16.092;2023-06-10T07:10:42;6.55;;;3.72;;
66585;SDS011;53444;45.822;16.092;2023-06-10T07:13:09;5.00;;;3.53;;
66585;SDS011;53444;45.822;16.092;2023-06-10T07:15:38;4.93;;;3.27;;
66585;SDS011;53444;45.822;16.092;2023-06-10T07:18:10;4.40;;;3.17;;
66585;SDS011;53444;45.822;16.092;2023-06-10T07:20:37;5.20;;;3.42;;
66585;SDS011;53444;45.822;16.092;2023-06-10T07:23:03;7.07;;;3.53;;
66585;SDS011;53444;45.822;16.092;2023-06-10T07:25:30;5.65;;;3.63;;
66585;SDS011;53444;45.822;16.092;2023-06-10T07:31:01;4.30;;;3.30;;
66585;SDS011;53444;45.822;16.092;2023-06-10T07:33:28;4.95;;;3.42;;
66585;SDS011;53444;45.822;16.092;2023-06-10T07:35:55;4.60;;;3.63;;
66585;SDS011;53444;45.822;16.092;2023-06-10T07:38:21;4.43;;;3.25;;
66585;SDS011;53444;45.822;16.092;2023-06-10T07:40:48;4.17;;;2.97;;
66585;SDS011;53444;45.822;16.092;2023-06-10T07:43:15;4.15;;;3.30;;
66585;SDS011;53444;45.822;16.092;2023-06-10T07:45:43;3.70;;;3.30;;
66585;SDS011;53444;45.822;16.092;2023-06-10T07:48:09;4.50;;;3.22;;
66585;SDS011;53444;45.822;16.092;2023-06-10T07:50:36;5.25;;;3.72;;
66585;SDS011;53444;45.822;16.092;2023-06-10T07:53:09;4.43;;;3.03;;
66585;SDS011;53444;45.822;16.092;2023-06-10T07:55:36;4.30;;;3.30;;
66585;SDS011;53444;45.822;16.092;2023-06-10T07:58:03;3.67;;;3.00;;
66585;SDS011;53444;45.822;16.092;2023-06-10T08:00:39;4.57;;;3.55;;
66585;SDS011;53444;45.822;16.092;2023-06-10T08:03:07;3.75;;;3.05;;
66585;SDS011;53444;45.822;16.092;2023-06-10T08:05:33;3.83;;;2.73;;
66585;SDS011;53444;45.822;16.092;2023-06-10T08:10:57;3.78;;;3.15;;
66585;SDS011;53444;45.822;16.092;2023-06-10T08:13:26;4.78;;;3.42;;
66585;SDS011;53444;45.822;16.092;2023-06-10T08:15:53;5.53;;;2.97;;
66585;SDS011;53444;45.822;16.092;2023-06-10T08:18:21;3.77;;;3.00;;
66585;SDS011;53444;45.822;16.092;2023-06-10T08:23:46;3.08;;;2.70;;
66585;SDS011;53444;45.822;16.092;2023-06-10T08:26:13;2.60;;;2.22;;
66585;SDS011;53444;45.822;16.092;2023-06-10T08:28:39;3.58;;;2.85;;
66585;SDS011;53444;45.822;16.092;2023-06-10T08:31:06;5.47;;;2.97;;
66585;SDS011;53444;45.822;16.092;2023-06-10T08:36:44;4.40;;;3.13;;
66585;SDS011;53444;45.822;16.092;2023-06-10T08:39:10;3.75;;;2.60;;
66585;SDS011;53444;45.822;16.092;2023-06-10T08:41:40;3.50;;;3.20;;
66585;SDS011;53444;45.822;16.092;2023-06-10T08:44:10;3.53;;;2.67;;
66585;SDS011;53444;45.822;16.092;2023-06-10T08:46:58;3.30;;;2.88;;
66585;SDS011;53444;45.822;16.092;2023-06-10T08:49:40;3.70;;;2.90;;
66585;SDS011;53444;45.822;16.092;2023-06-10T08:52:32;3.63;;;3.20;;
66585;SDS011;53444;45.822;16.092;2023-06-10T08:55:03;3.58;;;3.00;;
66585;SDS011;53444;45.822;16.092;2023-06-10T08:57:41;3.17;;;2.40;;
66585;SDS011;53444;45.822;16.092;2023-06-10T09:00:10;4.28;;;2.80;;
66585;SDS011;53444;45.822;16.092;2023-06-10T09:02:43;3.88;;;3.30;;
66585;SDS011;53444;45.822;16.092;2023-06-10T09:05:11;3.47;;;3.00;;
66585;SDS011;53444;45.822;16.092;2023-06-10T09:07:40;3.80;;;3.40;;
66585;SDS011;53444;45.822;16.092;2023-06-10T09:10:19;4.17;;;3.00;;
66585;SDS011;53444;45.822;16.092;2023-06-10T09:12:55;3.80;;;3.00;;
66585;SDS011;53444;45.822;16.092;2023-06-10T09:15:24;3.33;;;3.03;;
66585;SDS011;53444;45.822;16.092;2023-06-10T09:17:50;3.80;;;3.28;;
66585;SDS011;53444;45.822;16.092;2023-06-10T09:20:17;3.55;;;2.85;;
66585;SDS011;53444;45.822;16.092;2023-06-10T09:25:37;3.53;;;3.08;;
66585;SDS011;53444;45.822;16.092;2023-06-10T09:28:13;4.70;;;3.08;;
66585;SDS011;53444;45.822;16.092;2023-06-10T09:31:01;4.70;;;3.53;;
66585;SDS011;53444;45.822;16.092;2023-06-10T09:33:29;3.92;;;3.17;;
66585;SDS011;53444;45.822;16.092;2023-06-10T09:35:56;4.40;;;3.43;;
66585;SDS011;53444;45.822;16.092;2023-06-10T09:38:30;3.17;;;2.88;;
66585;SDS011;53444;45.822;16.092;2023-06-10T09:40:57;4.07;;;3.10;;
66585;SDS011;53444;45.822;16.092;2023-06-10T09:46:16;3.88;;;3.25;;
66585;SDS011;53444;45.822;16.092;2023-06-10T09:48:43;3.57;;;2.90;;
66585;SDS011;53444;45.822;16.092;2023-06-10T09:51:24;4.43;;;3.10;;
66585;SDS011;53444;45.822;16.092;2023-06-10T09:53:53;6.22;;;3.08;;
66585;SDS011;53444;45.822;16.092;2023-06-10T09:56:20;5.55;;;4.53;;
66585;SDS011;53444;45.822;16.092;2023-06-10T09:58:49;4.30;;;3.60;;
66585;SDS011;53444;45.822;16.092;2023-06-10T10:01:22;3.67;;;3.17;;
66585;SDS011;53444;45.822;16.092;2023-06-10T10:04:02;5.55;;;3.15;;
66585;SDS011;53444;45.822;16.092;2023-06-10T10:06:39;3.90;;;3.35;;
66585;SDS011;53444;45.822;16.092;2023-06-10T10:09:08;4.20;;;2.90;;
66585;SDS011;53444;45.822;16.092;2023-06-10T10:11:36;4.13;;;3.70;;
66585;SDS011;53444;45.822;16.092;2023-06-10T10:14:16;4.90;;;4.10;;
66585;SDS011;53444;45.822;16.092;2023-06-10T10:16:46;5.30;;;4.18;;
66585;SDS011;53444;45.822;16.092;2023-06-10T10:19:15;6.03;;;4.18;;
66585;SDS011;53444;45.822;16.092;2023-06-10T10:21:47;5.72;;;4.25;;
66585;SDS011;53444;45.822;16.092;2023-06-10T10:24:20;4.57;;;3.92;;
66585;SDS011;53444;45.822;16.092;2023-06-10T10:26:49;5.50;;;3.83;;
66585;SDS011;53444;45.822;16.092;2023-06-10T10:29:19;4.70;;;3.85;;
66585;SDS011;53444;45.822;16.092;2023-06-10T10:31:49;6.28;;;4.25;;
66585;SDS011;53444;45.822;16.092;2023-06-10T10:34:19;5.10;;;4.25;;
66585;SDS011;53444;45.822;16.092;2023-06-10T10:36:50;5.72;;;4.53;;
66585;SDS011;53444;45.822;16.092;2023-06-10T10:39:20;7.80;;;5.00;;
66585;SDS011;53444;45.822;16.092;2023-06-10T10:41:48;5.55;;;4.57;;
66585;SDS011;53444;45.822;16.092;2023-06-10T10:44:17;7.78;;;5.00;;
66585;SDS011;53444;45.822;16.092;2023-06-10T10:46:48;8.80;;;5.03;;
66585;SDS011;53444;45.822;16.092;2023-06-10T10:49:15;6.20;;;4.70;;
66585;SDS011;53444;45.822;16.092;2023-06-10T10:51:55;6.97;;;5.07;;
66585;SDS011;53444;45.822;16.092;2023-06-10T10:54:31;6.20;;;4.65;;
66585;SDS011;53444;45.822;16.092;2023-06-10T10:57:14;6.97;;;4.60;;
66585;SDS011;53444;45.822;16.092;2023-06-10T10:59:46;6.45;;;5.00;;
66585;SDS011;53444;45.822;16.092;2023-06-10T11:02:31;6.60;;;4.57;;
66585;SDS011;53444;45.822;16.092;2023-06-10T11:05:00;6.83;;;4.97;;
66585;SDS011;53444;45.822;16.092;2023-06-10T11:07:28;8.10;;;5.00;;
66585;SDS011;53444;45.822;16.092;2023-06-10T11:10:01;6.07;;;5.22;;
66585;SDS011;53444;45.822;16.092;2023-06-10T11:15:18;5.35;;;4.55;;
66585;SDS011;53444;45.822;16.092;2023-06-10T11:20:57;5.35;;;3.70;;
66585;SDS011;53444;45.822;16.092;2023-06-10T11:29:03;6.03;;;4.05;;
66585;SDS011;53444;45.822;16.092;2023-06-10T11:31:33;6.13;;;4.70;;
66585;SDS011;53444;45.822;16.092;2023-06-10T11:34:04;4.60;;;3.90;;
66585;SDS011;53444;45.822;16.092;2023-06-10T11:36:45;5.00;;;4.15;;
66585;SDS011;53444;45.822;16.092;2023-06-10T11:39:17;5.35;;;4.18;;
66585;SDS011;53444;45.822;16.092;2023-06-10T11:41:53;4.88;;;3.90;;
66585;SDS011;53444;45.822;16.092;2023-06-10T11:44:20;5.67;;;3.80;;
66585;SDS011;53444;45.822;16.092;2023-06-10T11:46:57;4.60;;;3.58;;
66585;SDS011;53444;45.822;16.092;2023-06-10T11:49:23;4.22;;;3.78;;
66585;SDS011;53444;45.822;16.092;2023-06-10T11:51:50;5.07;;;3.72;;
66585;SDS011;53444;45.822;16.092;2023-06-10T11:57:04;4.70;;;3.70;;
66585;SDS011;53444;45.822;16.092;2023-06-10T11:59:45;4.50;;;3.55;;
66585;SDS011;53444;45.822;16.092;2023-06-10T12:02:14;4.38;;;3.72;;
66585;SDS011;53444;45.822;16.092;2023-06-10T12:04:47;4.28;;;3.88;;
66585;SDS011;53444;45.822;16.092;2023-06-10T12:07:17;5.65;;;4.65;;
66585;SDS011;53444;45.822;16.092;2023-06-10T12:09:44;5.57;;;4.20;;
66585;SDS011;53444;45.822;16.092;2023-06-10T12:12:13;5.03;;;3.85;;
66585;SDS011;53444;45.822;16.092;2023-06-10T12:14:52;4.30;;;3.83;;
66585;SDS011;53444;45.822;16.092;2023-06-10T12:17:21;4.10;;;3.60;;
66585;SDS011;53444;45.822;16.092;2023-06-10T12:20:03;5.00;;;3.80;;
66585;SDS011;53444;45.822;16.092;2023-06-10T12:22:35;5.57;;;4.30;;
66585;SDS011;53444;45.822;16.092;2023-06-10T12:25:11;4.53;;;3.85;;
66585;SDS011;53444;45.822;16.092;2023-06-10T12:27:51;4.03;;;3.45;;
66585;SDS011;53444;45.822;16.092;2023-06-10T12:30:32;4.63;;;4.05;;
66585;SDS011;53444;45.822;16.092;2023-06-10T12:32:59;4.20;;;3.80;;
66585;SDS011;53444;45.822;16.092;2023-06-10T12:35:26;4.57;;;4.17;;
66585;SDS011;53444;45.822;16.092;2023-06-10T12:38:05;4.72;;;4.13;;
66585;SDS011;53444;45.822;16.092;2023-06-10T12:40:33;4.97;;;4.40;;
66585;SDS011;53444;45.822;16.092;2023-06-10T12:43:02;5.30;;;4.80;;
66585;SDS011;53444;45.822;16.092;2023-06-10T12:45:30;4.85;;;4.35;;
66585;SDS011;53444;45.822;16.092;2023-06-10T12:48:17;4.60;;;4.00;;
66585;SDS011;53444;45.822;16.092;2023-06-10T12:50:46;4.57;;;4.18;;
66585;SDS011;53444;45.822;16.092;2023-06-10T12:53:19;4.45;;;4.03;;
66585;SDS011;53444;45.822;16.092;2023-06-10T12:55:46;4.45;;;4.05;;
66585;SDS011;53444;45.822;16.092;2023-06-10T12:58:14;4.75;;;3.97;;
66585;SDS011;53444;45.822;16.092;2023-06-10T13:00:41;5.13;;;4.07;;
66585;SDS011;53444;45.822;16.092;2023-06-10T13:03:09;5.53;;;4.68;;
66585;SDS011;53444;45.822;16.092;2023-06-10T13:05:36;4.80;;;4.18;;
66585;SDS011;53444;45.822;16.092;2023-06-10T13:08:04;5.55;;;3.90;;
66585;SDS011;53444;45.822;16.092;2023-06-10T13:10:31;4.30;;;3.90;;
66585;SDS011;53444;45.822;16.092;2023-06-10T13:12:57;4.43;;;4.03;;
66585;SDS011;53444;45.822;16.092;2023-06-10T13:15:39;5.28;;;4.68;;
66585;SDS011;53444;45.822;16.092;2023-06-10T13:18:06;5.53;;;5.03;;
66585;SDS011;53444;45.822;16.092;2023-06-10T13:20:34;5.05;;;4.60;;
66585;SDS011;53444;45.822;16.092;2023-06-10T13:23:01;4.45;;;3.90;;
66585;SDS011;53444;45.822;16.092;2023-06-10T13:25:36;4.73;;;4.33;;
66585;SDS011;53444;45.822;16.092;2023-06-10T13:28:03;4.90;;;4.38;;
66585;SDS011;53444;45.822;16.092;2023-06-10T13:30:29;5.13;;;3.85;;
66585;SDS011;53444;45.822;16.092;2023-06-10T13:32:57;5.53;;;4.00;;
66585;SDS011;53444;45.822;16.092;2023-06-10T13:35:41;4.88;;;4.38;;
66585;SDS011;53444;45.822;16.092;2023-06-10T13:38:15;4.53;;;4.10;;
66585;SDS011;53444;45.822;16.092;2023-06-10T13:40:42;5.65;;;4.53;;
66585;SDS011;53444;45.822;16.092;2023-06-10T13:43:09;4.05;;;3.65;;
66585;SDS011;53444;45.822;16.092;2023-06-10T13:45:36;4.80;;;3.78;;
66585;SDS011;53444;45.822;16.092;2023-06-10T13:48:04;4.45;;;3.95;;
66585;SDS011;53444;45.822;16.092;2023-06-10T13:50:31;4.40;;;4.00;;
66585;SDS011;53444;45.822;16.092;2023-06-10T13:53:00;4.28;;;3.88;;
66585;SDS011;53444;45.822;16.092;2023-06-10T13:55:32;4.25;;;3.85;;
66585;SDS011;53444;45.822;16.092;2023-06-10T13:57:59;4.03;;;3.53;;
66585;SDS011;53444;45.822;16.092;2023-06-10T14:00:25;5.47;;;3.88;;
66585;SDS011;53444;45.822;16.092;2023-06-10T14:02:52;4.20;;;3.80;;
66585;SDS011;53444;45.822;16.092;2023-06-10T14:05:20;4.90;;;3.65;;
66585;SDS011;53444;45.822;16.092;2023-06-10T14:07:47;3.88;;;3.47;;
66585;SDS011;53444;45.822;16.092;2023-06-10T14:13:10;4.93;;;4.38;;
66585;SDS011;53444;45.822;16.092;2023-06-10T14:15:37;4.73;;;4.10;;
66585;SDS011;53444;45.822;16.092;2023-06-10T14:18:04;5.53;;;4.97;;
66585;SDS011;53444;45.822;16.092;2023-06-10T14:20:32;6.32;;;3.97;;
66585;SDS011;53444;45.822;16.092;2023-06-10T14:22:58;5.30;;;4.30;;
66585;SDS011;53444;45.822;16.092;2023-06-10T14:25:25;5.88;;;4.47;;
66585;SDS011;53444;45.822;16.092;2023-06-10T14:27:52;4.77;;;3.90;;
66585;SDS011;53444;45.822;16.092;2023-06-10T14:30:18;4.47;;;4.07;;
66585;SDS011;53444;45.822;16.092;2023-06-10T14:32:45;5.22;;;4.30;;
66585;SDS011;53444;45.822;16.092;2023-06-10T14:35:11;4.55;;;3.72;;
66585;SDS011;53444;45.822;16.092;2023-06-10T14:37:49;4.38;;;3.50;;
66585;SDS011;53444;45.822;16.092;2023-06-10T14:40:15;4.70;;;4.00;;
66585;SDS011;53444;45.822;16.092;2023-06-10T14:42:42;3.70;;;3.40;;
66585;SDS011;53444;45.822;16.092;2023-06-10T14:45:08;4.07;;;3.25;;
66585;SDS011;53444;45.822;16.092;2023-06-10T14:47:36;3.75;;;3.33;;
66585;SDS011;53444;45.822;16.092;2023-06-10T14:50:02;4.57;;;4.05;;
66585;SDS011;53444;45.822;16.092;2023-06-10T14:52:51;6.37;;;3.70;;
66585;SDS011;53444;45.822;16.092;2023-06-10T14:55:22;4.07;;;3.58;;
66585;SDS011;53444;45.822;16.092;2023-06-10T14:58:19;5.18;;;3.80;;
66585;SDS011;53444;45.822;16.092;2023-06-10T15:00:46;4.43;;;3.45;;
66585;SDS011;53444;45.822;16.092;2023-06-10T15:03:13;4.25;;;3.58;;
66585;SDS011;53444;45.822;16.092;2023-06-10T15:05:39;4.20;;;3.57;;
66585;SDS011;53444;45.822;16.092;2023-06-10T15:08:07;5.20;;;3.60;;
66585;SDS011;53444;45.822;16.092;2023-06-10T15:10:34;4.00;;;3.60;;
66585;SDS011;53444;45.822;16.092;2023-06-10T15:13:04;4.00;;;3.60;;
66585;SDS011;53444;45.822;16.092;2023-06-10T15:15:37;4.80;;;4.10;;
66585;SDS011;53444;45.822;16.092;2023-06-10T15:18:04;5.73;;;4.30;;
66585;SDS011;53444;45.822;16.092;2023-06-10T15:20:31;5.32;;;4.40;;
66585;SDS011;53444;45.822;16.092;2023-06-10T15:22:58;7.03;;;5.40;;
66585;SDS011;53444;45.822;16.092;2023-06-10T15:25:26;6.38;;;5.03;;
66585;SDS011;53444;45.822;16.092;2023-06-10T15:27:52;5.63;;;4.45;;
66585;SDS011;53444;45.822;16.092;2023-06-10T15:30:21;6.37;;;5.20;;
66585;SDS011;53444;45.822;16.092;2023-06-10T15:33:05;5.60;;;4.70;;
66585;SDS011;53444;45.822;16.092;2023-06-10T15:35:32;6.03;;;5.35;;
66585;SDS011;53444;45.822;16.092;2023-06-10T15:37:59;6.20;;;4.95;;
66585;SDS011;53444;45.822;16.092;2023-06-10T15:43:43;6.03;;;4.50;;
66585;SDS011;53444;45.822;16.092;2023-06-10T15:46:10;5.35;;;4.45;;
66585;SDS011;53444;45.822;16.092;2023-06-10T15:48:40;5.22;;;4.00;;
66585;SDS011;53444;45.822;16.092;2023-06-10T15:51:08;4.63;;;3.78;;
66585;SDS011;53444;45.822;16.092;2023-06-10T15:53:34;4.53;;;4.07;;
66585;SDS011;53444;45.822;16.092;2023-06-10T15:56:02;5.10;;;4.50;;
66585;SDS011;53444;45.822;16.092;2023-06-10T15:58:29;4.40;;;3.55;;
66585;SDS011;53444;45.822;16.092;2023-06-10T16:01:09;4.20;;;3.78;;
66585;SDS011;53444;45.822;16.092;2023-06-10T16:03:36;4.55;;;4.05;;
66585;SDS011;53444;45.822;16.092;2023-06-10T16:06:05;4.05;;;3.55;;
66585;SDS011;53444;45.822;16.092;2023-06-10T16:08:32;4.60;;;3.67;;
66585;SDS011;53444;45.822;16.092;2023-06-10T16:10:58;3.97;;;3.53;;
66585;SDS011;53444;45.822;16.092;2023-06-10T16:13:25;3.95;;;3.22;;
66585;SDS011;53444;45.822;16.092;2023-06-10T16:15:58;4.53;;;4.03;;
66585;SDS011;53444;45.822;16.092;2023-06-10T16:18:26;5.05;;;3.85;;
66585;SDS011;53444;45.822;16.092;2023-06-10T16:23:53;4.38;;;3.70;;
66585;SDS011;53444;45.822;16.092;2023-06-10T16:26:20;4.60;;;3.95;;
66585;SDS011;53444;45.822;16.092;2023-06-10T16:28:51;4.38;;;3.70;;
66585;SDS011;53444;45.822;16.092;2023-06-10T16:31:18;3.83;;;3.42;;
66585;SDS011;53444;45.822;16.092;2023-06-10T16:33:47;3.43;;;3.13;;